sensor_id;sensor_type;location;lat;lon;timestamp;P1;durP1;ratioP1;P2;durP2;ratioP2
15528;SDS011;7866;52.280;9.500;2023-10-09T00:05:00;1.90;;;1.40;;
15528;SDS011;7866;52.280;9.500;2023-10-09T00:10:03;3.20;;;1.40;;
15528;SDS011;7866;52.280;9.500;2023-10-09T00:15:12;2.10;;;1.50;;
15528;SDS011;7866;52.280;9.500;2023-10-09T00:20:19;2.17;;;1.40;;
15528;SDS011;7866;52.280;9.500;2023-10-09T00:25:25;1.85;;;1.17;;
15528;SDS011;7866;52.280;9.500;2023-10-09T00:30:30;2.95;;;1.50;;
15528;SDS011;7866;52.280;9.500;2023-10-09T00:35:36;1.67;;;1.25;;
15528;SDS011;7866;52.280;9.500;2023-10-09T00:40:41;2.33;;;1.50;;
15528;SDS011;7866;52.280;9.500;2023-10-09T00:45:47;2.40;;;1.80;;
15528;SDS011;7866;52.280;9.500;2023-10-09T00:50:52;4.63;;;2.88;;
15528;SDS011;7866;52.280;9.500;2023-10-09T00:55:54;10.18;;;2.95;;
15528;SDS011;7866;52.280;9.500;2023-10-09T01:00:57;6.72;;;3.08;;
15528;SDS011;7866;52.280;9.500;2023-10-09T01:06:01;6.65;;;3.40;;
15528;SDS011;7866;52.280;9.500;2023-10-09T01:11:16;4.65;;;3.40;;
15528;SDS011;7866;52.280;9.500;2023-10-09T01:16:22;3.83;;;3.25;;
15528;SDS011;7866;52.280;9.500;2023-10-09T01:21:25;3.15;;;2.50;;
15528;SDS011;7866;52.280;9.500;2023-10-09T01:26:29;7.25;;;2.80;;
15528;SDS011;7866;52.280;9.500;2023-10-09T01:31:34;4.38;;;2.10;;
15528;SDS011;7866;52.280;9.500;2023-10-09T01:36:38;3.92;;;2.60;;
15528;SDS011;7866;52.280;9.500;2023-10-09T01:41:43;4.00;;;2.35;;
15528;SDS011;7866;52.280;9.500;2023-10-09T01:46:47;5.40;;;3.33;;
15528;SDS011;7866;52.280;9.500;2023-10-09T01:51:48;5.85;;;3.78;;
15528;SDS011;7866;52.280;9.500;2023-10-09T01:56:52;7.85;;;3.85;;
15528;SDS011;7866;52.280;9.500;2023-10-09T02:01:56;7.47;;;4.68;;
15528;SDS011;7866;52.280;9.500;2023-10-09T02:07:00;9.45;;;5.13;;
15528;SDS011;7866;52.280;9.500;2023-10-09T02:12:08;5.90;;;3.65;;
15528;SDS011;7866;52.280;9.500;2023-10-09T02:17:09;6.55;;;3.97;;
15528;SDS011;7866;52.280;9.500;2023-10-09T02:22:18;4.97;;;3.60;;
15528;SDS011;7866;52.280;9.500;2023-10-09T02:27:21;5.90;;;3.30;;
15528;SDS011;7866;52.280;9.500;2023-10-09T02:32:50;8.30;;;4.70;;
15528;SDS011;7866;52.280;9.500;2023-10-09T02:37:52;10.85;;;6.75;;
15528;SDS011;7866;52.280;9.500;2023-10-09T02:42:54;13.13;;;6.85;;
15528;SDS011;7866;52.280;9.500;2023-10-09T02:47:57;11.85;;;7.10;;
15528;SDS011;7866;52.280;9.500;2023-10-09T02:53:00;12.00;;;7.32;;
15528;SDS011;7866;52.280;9.500;2023-10-09T02:58:09;13.55;;;7.22;;
15528;SDS011;7866;52.280;9.500;2023-10-09T03:03:21;12.88;;;7.70;;
15528;SDS011;7866;52.280;9.500;2023-10-09T03:08:23;12.63;;;7.63;;
15528;SDS011;7866;52.280;9.500;2023-10-09T03:13:25;11.90;;;8.45;;
15528;SDS011;7866;52.280;9.500;2023-10-09T03:18:31;16.13;;;8.27;;
15528;SDS011;7866;52.280;9.500;2023-10-09T03:23:32;15.63;;;9.40;;
15528;SDS011;7866;52.280;9.500;2023-10-09T03:28:34;11.02;;;7.60;;
15528;SDS011;7866;52.280;9.500;2023-10-09T03:33:37;17.23;;;9.15;;
15528;SDS011;7866;52.280;9.500;2023-10-09T03:38:39;12.68;;;8.70;;
15528;SDS011;7866;52.280;9.500;2023-10-09T03:43:40;13.30;;;9.50;;
15528;SDS011;7866;52.280;9.500;2023-10-09T03:48:44;21.75;;;11.25;;
15528;SDS011;7866;52.280;9.500;2023-10-09T03:53:46;15.75;;;11.30;;
15528;SDS011;7866;52.280;9.500;2023-10-09T03:58:49;22.70;;;13.80;;
15528;SDS011;7866;52.280;9.500;2023-10-09T04:03:52;20.17;;;13.63;;
15528;SDS011;7866;52.280;9.500;2023-10-09T04:08:55;21.42;;;15.80;;
15528;SDS011;7866;52.280;9.500;2023-10-09T04:13:58;21.60;;;15.23;;
15528;SDS011;7866;52.280;9.500;2023-10-09T04:19:11;23.60;;;16.65;;
15528;SDS011;7866;52.280;9.500;2023-10-09T04:24:13;24.10;;;15.90;;
15528;SDS011;7866;52.280;9.500;2023-10-09T04:29:24;21.90;;;16.50;;
15528;SDS011;7866;52.280;9.500;2023-10-09T04:34:30;24.05;;;17.17;;
15528;SDS011;7866;52.280;9.500;2023-10-09T04:39:36;22.10;;;15.32;;
15528;SDS011;7866;52.280;9.500;2023-10-09T04:44:46;21.25;;;15.30;;
15528;SDS011;7866;52.280;9.500;2023-10-09T04:50:08;19.00;;;15.27;;
15528;SDS011;7866;52.280;9.500;2023-10-09T04:55:11;21.65;;;14.20;;
15528;SDS011;7866;52.280;9.500;2023-10-09T05:00:20;22.20;;;15.07;;
15528;SDS011;7866;52.280;9.500;2023-10-09T05:05:44;21.02;;;14.25;;
15528;SDS011;7866;52.280;9.500;2023-10-09T05:10:58;18.52;;;13.48;;
15528;SDS011;7866;52.280;9.500;2023-10-09T05:16:16;18.23;;;13.38;;
15528;SDS011;7866;52.280;9.500;2023-10-09T05:21:24;18.77;;;13.07;;
15528;SDS011;7866;52.280;9.500;2023-10-09T05:26:41;21.13;;;13.65;;
15528;SDS011;7866;52.280;9.500;2023-10-09T05:31:51;19.58;;;13.38;;
15528;SDS011;7866;52.280;9.500;2023-10-09T05:37:05;20.13;;;12.82;;
15528;SDS011;7866;52.280;9.500;2023-10-09T05:42:22;19.27;;;13.23;;
15528;SDS011;7866;52.280;9.500;2023-10-09T05:47:28;19.35;;;12.85;;
15528;SDS011;7866;52.280;9.500;2023-10-09T05:52:36;16.63;;;12.27;;
15528;SDS011;7866;52.280;9.500;2023-10-09T05:57:55;20.13;;;13.70;;
15528;SDS011;7866;52.280;9.500;2023-10-09T06:03:14;19.50;;;13.18;;
15528;SDS011;7866;52.280;9.500;2023-10-09T06:08:26;18.30;;;13.23;;
15528;SDS011;7866;52.280;9.500;2023-10-09T06:13:49;17.88;;;11.75;;
15528;SDS011;7866;52.280;9.500;2023-10-09T06:19:02;17.20;;;12.23;;
15528;SDS011;7866;52.280;9.500;2023-10-09T06:24:13;17.77;;;13.27;;
15528;SDS011;7866;52.280;9.500;2023-10-09T06:29:18;18.25;;;12.88;;
15528;SDS011;7866;52.280;9.500;2023-10-09T06:34:35;19.40;;;13.15;;
15528;SDS011;7866;52.280;9.500;2023-10-09T06:39:46;19.52;;;15.15;;
15528;SDS011;7866;52.280;9.500;2023-10-09T06:45:08;19.52;;;14.00;;
15528;SDS011;7866;52.280;9.500;2023-10-09T06:50:14;18.90;;;13.52;;
15528;SDS011;7866;52.280;9.500;2023-10-09T06:55:27;21.13;;;13.77;;
15528;SDS011;7866;52.280;9.500;2023-10-09T07:00:37;20.45;;;14.23;;
15528;SDS011;7866;52.280;9.500;2023-10-09T07:06:04;21.63;;;14.18;;
15528;SDS011;7866;52.280;9.500;2023-10-09T07:11:11;21.13;;;14.60;;
15528;SDS011;7866;52.280;9.500;2023-10-09T07:16:38;21.35;;;13.88;;
15528;SDS011;7866;52.280;9.500;2023-10-09T07:21:57;23.45;;;14.98;;
15528;SDS011;7866;52.280;9.500;2023-10-09T07:27:04;20.83;;;14.13;;
15528;SDS011;7866;52.280;9.500;2023-10-09T07:32:10;21.42;;;14.82;;
15528;SDS011;7866;52.280;9.500;2023-10-09T07:37:20;19.10;;;13.68;;
15528;SDS011;7866;52.280;9.500;2023-10-09T07:42:24;20.30;;;14.98;;
15528;SDS011;7866;52.280;9.500;2023-10-09T07:47:45;21.42;;;15.27;;
15528;SDS011;7866;52.280;9.500;2023-10-09T07:53:01;19.52;;;14.30;;
15528;SDS011;7866;52.280;9.500;2023-10-09T07:58:19;21.00;;;14.45;;
15528;SDS011;7866;52.280;9.500;2023-10-09T08:03:25;19.67;;;14.27;;
15528;SDS011;7866;52.280;9.500;2023-10-09T08:08:32;20.63;;;14.18;;
15528;SDS011;7866;52.280;9.500;2023-10-09T08:13:57;20.30;;;14.27;;
15528;SDS011;7866;52.280;9.500;2023-10-09T08:19:00;20.42;;;14.80;;
15528;SDS011;7866;52.280;9.500;2023-10-09T08:24:20;17.73;;;12.75;;
15528;SDS011;7866;52.280;9.500;2023-10-09T08:29:49;17.08;;;13.32;;
15528;SDS011;7866;52.280;9.500;2023-10-09T08:35:11;18.42;;;12.32;;
15528;SDS011;7866;52.280;9.500;2023-10-09T08:40:30;16.13;;;12.23;;
15528;SDS011;7866;52.280;9.500;2023-10-09T08:45:34;18.27;;;12.63;;
15528;SDS011;7866;52.280;9.500;2023-10-09T08:50:39;16.20;;;12.00;;
15528;SDS011;7866;52.280;9.500;2023-10-09T08:55:42;17.10;;;12.55;;
15528;SDS011;7866;52.280;9.500;2023-10-09T09:00:47;16.30;;;12.07;;
15528;SDS011;7866;52.280;9.500;2023-10-09T09:05:57;18.30;;;13.07;;
15528;SDS011;7866;52.280;9.500;2023-10-09T09:11:02;19.08;;;14.07;;
15528;SDS011;7866;52.280;9.500;2023-10-09T09:16:17;16.67;;;13.77;;
15528;SDS011;7866;52.280;9.500;2023-10-09T09:21:20;17.38;;;12.52;;
15528;SDS011;7866;52.280;9.500;2023-10-09T09:26:35;19.40;;;13.13;;
15528;SDS011;7866;52.280;9.500;2023-10-09T09:31:55;16.63;;;11.98;;
15528;SDS011;7866;52.280;9.500;2023-10-09T09:37:06;17.48;;;13.88;;
15528;SDS011;7866;52.280;9.500;2023-10-09T09:42:13;19.17;;;13.18;;
15528;SDS011;7866;52.280;9.500;2023-10-09T09:47:18;20.17;;;13.27;;
15528;SDS011;7866;52.280;9.500;2023-10-09T09:52:28;17.60;;;14.27;;
15528;SDS011;7866;52.280;9.500;2023-10-09T09:57:38;19.15;;;14.57;;
15528;SDS011;7866;52.280;9.500;2023-10-09T10:02:41;15.88;;;11.88;;
15528;SDS011;7866;52.280;9.500;2023-10-09T10:07:45;14.65;;;10.75;;
15528;SDS011;7866;52.280;9.500;2023-10-09T10:12:50;12.93;;;9.90;;
15528;SDS011;7866;52.280;9.500;2023-10-09T10:18:08;12.50;;;9.02;;
15528;SDS011;7866;52.280;9.500;2023-10-09T10:23:19;12.95;;;9.48;;
15528;SDS011;7866;52.280;9.500;2023-10-09T10:28:26;12.57;;;9.43;;
15528;SDS011;7866;52.280;9.500;2023-10-09T10:39:10;12.35;;;10.40;;
15528;SDS011;7866;52.280;9.500;2023-10-09T10:44:27;12.85;;;11.50;;
15528;SDS011;7866;52.280;9.500;2023-10-09T10:49:38;17.77;;;11.85;;
15528;SDS011;7866;52.280;9.500;2023-10-09T10:54:44;12.35;;;10.77;;
15528;SDS011;7866;52.280;9.500;2023-10-09T11:00:10;12.75;;;10.60;;
15528;SDS011;7866;52.280;9.500;2023-10-09T11:05:36;11.63;;;9.88;;
15528;SDS011;7866;52.280;9.500;2023-10-09T11:10:40;9.48;;;8.00;;
15528;SDS011;7866;52.280;9.500;2023-10-09T11:15:50;8.15;;;7.35;;
15528;SDS011;7866;52.280;9.500;2023-10-09T11:21:15;7.05;;;6.15;;
15528;SDS011;7866;52.280;9.500;2023-10-09T11:26:32;6.97;;;5.45;;
15528;SDS011;7866;52.280;9.500;2023-10-09T11:31:40;4.82;;;4.38;;
15528;SDS011;7866;52.280;9.500;2023-10-09T11:36:47;4.80;;;4.30;;
15528;SDS011;7866;52.280;9.500;2023-10-09T11:41:59;4.20;;;3.65;;
15528;SDS011;7866;52.280;9.500;2023-10-09T11:47:04;5.55;;;3.60;;
15528;SDS011;7866;52.280;9.500;2023-10-09T11:52:24;3.95;;;3.55;;
15528;SDS011;7866;52.280;9.500;2023-10-09T11:57:38;3.70;;;3.40;;
15528;SDS011;7866;52.280;9.500;2023-10-09T12:02:40;5.68;;;4.35;;
15528;SDS011;7866;52.280;9.500;2023-10-09T12:07:46;4.95;;;4.47;;
15528;SDS011;7866;52.280;9.500;2023-10-09T12:12:54;5.65;;;4.90;;
15528;SDS011;7866;52.280;9.500;2023-10-09T12:17:58;5.45;;;4.90;;
15528;SDS011;7866;52.280;9.500;2023-10-09T12:23:01;6.15;;;5.28;;
15528;SDS011;7866;52.280;9.500;2023-10-09T12:28:06;6.00;;;5.40;;
15528;SDS011;7866;52.280;9.500;2023-10-09T12:33:12;6.75;;;4.90;;
15528;SDS011;7866;52.280;9.500;2023-10-09T12:38:16;5.20;;;4.55;;
15528;SDS011;7866;52.280;9.500;2023-10-09T12:43:22;4.93;;;4.53;;
15528;SDS011;7866;52.280;9.500;2023-10-09T12:48:26;4.43;;;4.03;;
15528;SDS011;7866;52.280;9.500;2023-10-09T12:53:33;5.43;;;4.53;;
15528;SDS011;7866;52.280;9.500;2023-10-09T12:58:35;4.97;;;4.45;;
15528;SDS011;7866;52.280;9.500;2023-10-09T13:03:37;5.18;;;4.78;;
15528;SDS011;7866;52.280;9.500;2023-10-09T13:08:41;5.40;;;4.90;;
15528;SDS011;7866;52.280;9.500;2023-10-09T13:13:45;6.53;;;5.07;;
15528;SDS011;7866;52.280;9.500;2023-10-09T13:18:50;5.45;;;4.95;;
15528;SDS011;7866;52.280;9.500;2023-10-09T13:23:54;7.75;;;5.55;;
15528;SDS011;7866;52.280;9.500;2023-10-09T13:28:57;6.30;;;5.78;;
15528;SDS011;7866;52.280;9.500;2023-10-09T13:34:00;6.05;;;5.45;;
15528;SDS011;7866;52.280;9.500;2023-10-09T13:39:05;6.88;;;5.82;;
15528;SDS011;7866;52.280;9.500;2023-10-09T13:44:23;6.50;;;5.90;;
15528;SDS011;7866;52.280;9.500;2023-10-09T13:49:27;8.07;;;5.88;;
15528;SDS011;7866;52.280;9.500;2023-10-09T13:54:32;7.47;;;6.13;;
15528;SDS011;7866;52.280;9.500;2023-10-09T13:59:41;7.57;;;6.88;;
15528;SDS011;7866;52.280;9.500;2023-10-09T14:04:49;7.32;;;6.63;;
15528;SDS011;7866;52.280;9.500;2023-10-09T14:09:53;8.18;;;6.93;;
15528;SDS011;7866;52.280;9.500;2023-10-09T14:15:07;9.80;;;8.55;;
15528;SDS011;7866;52.280;9.500;2023-10-09T14:20:11;8.43;;;6.82;;
15528;SDS011;7866;52.280;9.500;2023-10-09T14:25:29;7.25;;;5.70;;
15528;SDS011;7866;52.280;9.500;2023-10-09T14:30:31;7.50;;;6.63;;
15528;SDS011;7866;52.280;9.500;2023-10-09T14:35:42;8.73;;;6.50;;
15528;SDS011;7866;52.280;9.500;2023-10-09T14:40:47;7.25;;;6.25;;
15528;SDS011;7866;52.280;9.500;2023-10-09T14:45:49;9.05;;;6.55;;
15528;SDS011;7866;52.280;9.500;2023-10-09T14:50:53;6.85;;;6.15;;
15528;SDS011;7866;52.280;9.500;2023-10-09T14:56:05;8.00;;;6.30;;
15528;SDS011;7866;52.280;9.500;2023-10-09T15:01:09;9.35;;;5.57;;
15528;SDS011;7866;52.280;9.500;2023-10-09T15:06:12;6.75;;;5.53;;
15528;SDS011;7866;52.280;9.500;2023-10-09T15:11:15;6.78;;;4.80;;
15528;SDS011;7866;52.280;9.500;2023-10-09T15:16:17;6.20;;;5.32;;
15528;SDS011;7866;52.280;9.500;2023-10-09T15:21:21;6.00;;;5.22;;
15528;SDS011;7866;52.280;9.500;2023-10-09T15:26:27;6.50;;;5.00;;
15528;SDS011;7866;52.280;9.500;2023-10-09T15:31:33;9.15;;;5.50;;
15528;SDS011;7866;52.280;9.500;2023-10-09T15:36:35;5.03;;;4.18;;
15528;SDS011;7866;52.280;9.500;2023-10-09T15:41:38;6.47;;;3.90;;
15528;SDS011;7866;52.280;9.500;2023-10-09T15:46:40;5.07;;;4.40;;
15528;SDS011;7866;52.280;9.500;2023-10-09T15:51:45;4.15;;;3.75;;
15528;SDS011;7866;52.280;9.500;2023-10-09T15:56:48;5.80;;;4.25;;
15528;SDS011;7866;52.280;9.500;2023-10-09T16:01:50;5.40;;;4.57;;
15528;SDS011;7866;52.280;9.500;2023-10-09T16:06:53;5.40;;;4.07;;
15528;SDS011;7866;52.280;9.500;2023-10-09T16:11:57;4.45;;;3.83;;
15528;SDS011;7866;52.280;9.500;2023-10-09T16:16:58;6.03;;;4.63;;
15528;SDS011;7866;52.280;9.500;2023-10-09T16:22:01;6.05;;;4.00;;
15528;SDS011;7866;52.280;9.500;2023-10-09T16:27:05;5.10;;;4.20;;
15528;SDS011;7866;52.280;9.500;2023-10-09T16:32:07;4.53;;;4.03;;
15528;SDS011;7866;52.280;9.500;2023-10-09T16:37:11;4.10;;;3.70;;
15528;SDS011;7866;52.280;9.500;2023-10-09T16:42:15;5.32;;;3.95;;
15528;SDS011;7866;52.280;9.500;2023-10-09T16:47:17;4.97;;;3.22;;
15528;SDS011;7866;52.280;9.500;2023-10-09T16:52:19;3.65;;;3.13;;
15528;SDS011;7866;52.280;9.500;2023-10-09T16:57:24;7.20;;;3.22;;
15528;SDS011;7866;52.280;9.500;2023-10-09T17:02:26;4.13;;;2.90;;
15528;SDS011;7866;52.280;9.500;2023-10-09T17:07:30;6.25;;;3.63;;
15528;SDS011;7866;52.280;9.500;2023-10-09T17:12:35;8.05;;;3.85;;
15528;SDS011;7866;52.280;9.500;2023-10-09T17:17:39;5.82;;;5.00;;
15528;SDS011;7866;52.280;9.500;2023-10-09T17:22:42;5.60;;;4.38;;
15528;SDS011;7866;52.280;9.500;2023-10-09T17:27:47;6.50;;;4.18;;
15528;SDS011;7866;52.280;9.500;2023-10-09T17:32:49;4.90;;;3.95;;
15528;SDS011;7866;52.280;9.500;2023-10-09T17:37:51;4.13;;;3.35;;
15528;SDS011;7866;52.280;9.500;2023-10-09T17:42:54;6.32;;;3.60;;
15528;SDS011;7866;52.280;9.500;2023-10-09T17:47:56;5.13;;;3.80;;
15528;SDS011;7866;52.280;9.500;2023-10-09T17:52:59;4.35;;;3.47;;
15528;SDS011;7866;52.280;9.500;2023-10-09T17:58:06;4.20;;;3.05;;
15528;SDS011;7866;52.280;9.500;2023-10-09T18:03:08;3.85;;;3.17;;
15528;SDS011;7866;52.280;9.500;2023-10-09T18:08:11;2.88;;;2.65;;
15528;SDS011;7866;52.280;9.500;2023-10-09T18:13:16;3.95;;;3.00;;
15528;SDS011;7866;52.280;9.500;2023-10-09T18:18:18;3.65;;;2.35;;
15528;SDS011;7866;52.280;9.500;2023-10-09T18:23:20;3.63;;;2.30;;
15528;SDS011;7866;52.280;9.500;2023-10-09T18:28:23;3.58;;;2.35;;
15528;SDS011;7866;52.280;9.500;2023-10-09T18:33:25;5.05;;;2.30;;
15528;SDS011;7866;52.280;9.500;2023-10-09T18:38:26;4.57;;;2.28;;
15528;SDS011;7866;52.280;9.500;2023-10-09T18:43:30;3.55;;;2.05;;
15528;SDS011;7866;52.280;9.500;2023-10-09T18:48:31;3.83;;;2.30;;
15528;SDS011;7866;52.280;9.500;2023-10-09T18:53:33;4.47;;;2.30;;
15528;SDS011;7866;52.280;9.500;2023-10-09T18:58:36;3.88;;;2.53;;
15528;SDS011;7866;52.280;9.500;2023-10-09T19:03:37;8.25;;;4.63;;
15528;SDS011;7866;52.280;9.500;2023-10-09T19:08:39;3.63;;;2.60;;
15528;SDS011;7866;52.280;9.500;2023-10-09T19:13:42;3.05;;;2.67;;
15528;SDS011;7866;52.280;9.500;2023-10-09T19:18:44;4.03;;;2.75;;
15528;SDS011;7866;52.280;9.500;2023-10-09T19:23:46;3.75;;;2.92;;
15528;SDS011;7866;52.280;9.500;2023-10-09T19:28:49;7.72;;;2.80;;
15528;SDS011;7866;52.280;9.500;2023-10-09T19:33:50;4.13;;;2.92;;
15528;SDS011;7866;52.280;9.500;2023-10-09T19:38:52;9.52;;;2.83;;
15528;SDS011;7866;52.280;9.500;2023-10-09T19:43:55;6.55;;;2.42;;
15528;SDS011;7866;52.280;9.500;2023-10-09T19:48:57;3.38;;;2.10;;
15528;SDS011;7866;52.280;9.500;2023-10-09T19:53:58;3.83;;;2.42;;
15528;SDS011;7866;52.280;9.500;2023-10-09T19:59:01;4.10;;;2.50;;
15528;SDS011;7866;52.280;9.500;2023-10-09T20:04:03;3.60;;;2.20;;
15528;SDS011;7866;52.280;9.500;2023-10-09T20:09:05;3.78;;;2.28;;
15528;SDS011;7866;52.280;9.500;2023-10-09T20:14:14;3.50;;;1.73;;
15528;SDS011;7866;52.280;9.500;2023-10-09T20:19:18;3.47;;;2.10;;
15528;SDS011;7866;52.280;9.500;2023-10-09T20:24:19;3.33;;;2.05;;
15528;SDS011;7866;52.280;9.500;2023-10-09T20:29:26;5.93;;;2.00;;
15528;SDS011;7866;52.280;9.500;2023-10-09T20:34:28;3.13;;;1.77;;
15528;SDS011;7866;52.280;9.500;2023-10-09T20:39:31;4.97;;;2.05;;
15528;SDS011;7866;52.280;9.500;2023-10-09T20:44:34;3.63;;;1.98;;
15528;SDS011;7866;52.280;9.500;2023-10-09T20:49:36;3.50;;;1.80;;
15528;SDS011;7866;52.280;9.500;2023-10-09T20:54:37;1.95;;;1.60;;
15528;SDS011;7866;52.280;9.500;2023-10-09T20:59:40;2.45;;;1.80;;
15528;SDS011;7866;52.280;9.500;2023-10-09T21:04:43;4.20;;;2.00;;
15528;SDS011;7866;52.280;9.500;2023-10-09T21:09:44;2.17;;;1.60;;
15528;SDS011;7866;52.280;9.500;2023-10-09T21:14:49;3.33;;;1.65;;
15528;SDS011;7866;52.280;9.500;2023-10-09T21:19:51;4.10;;;2.00;;
15528;SDS011;7866;52.280;9.500;2023-10-09T21:24:53;4.72;;;1.92;;
15528;SDS011;7866;52.280;9.500;2023-10-09T21:29:56;5.53;;;1.63;;
15528;SDS011;7866;52.280;9.500;2023-10-09T21:34:58;2.55;;;1.55;;
15528;SDS011;7866;52.280;9.500;2023-10-09T21:40:01;5.75;;;1.92;;
15528;SDS011;7866;52.280;9.500;2023-10-09T21:45:09;4.60;;;1.80;;
15528;SDS011;7866;52.280;9.500;2023-10-09T21:50:11;2.28;;;1.50;;
15528;SDS011;7866;52.280;9.500;2023-10-09T21:55:13;4.90;;;1.58;;
15528;SDS011;7866;52.280;9.500;2023-10-09T22:00:18;4.38;;;2.00;;
15528;SDS011;7866;52.280;9.500;2023-10-09T22:05:30;6.50;;;1.92;;
15528;SDS011;7866;52.280;9.500;2023-10-09T22:10:33;2.08;;;1.60;;
15528;SDS011;7866;52.280;9.500;2023-10-09T22:15:36;2.80;;;1.55;;
15528;SDS011;7866;52.280;9.500;2023-10-09T22:20:37;1.83;;;1.40;;
15528;SDS011;7866;52.280;9.500;2023-10-09T22:25:46;4.72;;;1.83;;
15528;SDS011;7866;52.280;9.500;2023-10-09T22:31:01;2.45;;;1.50;;
15528;SDS011;7866;52.280;9.500;2023-10-09T22:36:05;1.83;;;1.45;;
15528;SDS011;7866;52.280;9.500;2023-10-09T22:41:10;2.05;;;1.63;;
15528;SDS011;7866;52.280;9.500;2023-10-09T22:46:21;2.45;;;1.77;;
15528;SDS011;7866;52.280;9.500;2023-10-09T22:51:23;2.45;;;1.55;;
15528;SDS011;7866;52.280;9.500;2023-10-09T22:56:26;4.03;;;1.80;;
15528;SDS011;7866;52.280;9.500;2023-10-09T23:01:31;3.95;;;2.10;;
15528;SDS011;7866;52.280;9.500;2023-10-09T23:06:32;1.85;;;1.75;;
15528;SDS011;7866;52.280;9.500;2023-10-09T23:11:35;2.08;;;1.85;;
15528;SDS011;7866;52.280;9.500;2023-10-09T23:16:39;4.55;;;2.00;;
15528;SDS011;7866;52.280;9.500;2023-10-09T23:21:53;5.30;;;1.95;;
15528;SDS011;7866;52.280;9.500;2023-10-09T23:27:08;2.83;;;1.80;;
15528;SDS011;7866;52.280;9.500;2023-10-09T23:32:27;5.68;;;2.10;;
15528;SDS011;7866;52.280;9.500;2023-10-09T23:37:32;5.00;;;2.22;;
15528;SDS011;7866;52.280;9.500;2023-10-09T23:42:43;2.65;;;2.10;;
15528;SDS011;7866;52.280;9.500;2023-10-09T23:47:58;3.80;;;2.15;;
15528;SDS011;7866;52.280;9.500;2023-10-09T23:53:00;3.13;;;2.15;;
15528;SDS011;7866;52.280;9.500;2023-10-09T23:58:02;3.17;;;2.20;;
